createdAt,value
2017-08-16T00:01:54.313Z,22.60
2017-08-16T00:04:21.991Z,22.60
2017-08-16T00:06:49.634Z,22.60
2017-08-16T00:09:17.504Z,22.60
2017-08-16T00:11:45.266Z,22.50
2017-08-16T00:14:12.959Z,22.50
2017-08-16T00:16:40.792Z,22.50
2017-08-16T00:19:08.559Z,22.50
2017-08-16T00:21:36.426Z,22.40
2017-08-16T00:24:04.194Z,22.40
2017-08-16T00:26:31.882Z,22.40
2017-08-16T00:28:59.538Z,22.40
2017-08-16T00:31:27.282Z,22.40
2017-08-16T00:33:54.979Z,22.40
2017-08-16T00:36:23.453Z,22.30
2017-08-16T00:38:51.213Z,22.30
2017-08-16T00:41:18.867Z,22.30
2017-08-16T00:43:46.640Z,22.30
2017-08-16T00:46:14.410Z,22.30
2017-08-16T00:48:42.888Z,22.30
2017-08-16T00:51:10.622Z,22.20
2017-08-16T00:53:38.246Z,22.30
2017-08-16T00:56:06.049Z,22.20
2017-08-16T00:58:33.810Z,22.20
2017-08-16T01:01:01.678Z,22.20
2017-08-16T01:03:29.443Z,22.10
2017-08-16T01:05:57.206Z,22.10
2017-08-16T01:08:24.976Z,22.10
2017-08-16T01:10:52.841Z,22.10
2017-08-16T01:13:20.603Z,22.10
2017-08-16T01:15:48.247Z,22.00
2017-08-16T01:18:16.030Z,22.00
2017-08-16T01:20:43.793Z,21.90
2017-08-16T01:23:11.558Z,21.90
2017-08-16T01:25:39.240Z,21.90
2017-08-16T01:28:07.031Z,21.80
2017-08-16T01:30:35.441Z,21.80
2017-08-16T01:33:03.233Z,21.70
2017-08-16T01:35:30.888Z,21.80
2017-08-16T01:37:58.657Z,21.80
2017-08-16T01:40:26.416Z,21.80
2017-08-16T01:42:54.102Z,21.70
2017-08-16T01:45:21.866Z,21.70
2017-08-16T01:47:52.504Z,21.70
2017-08-16T01:50:20.242Z,21.70
2017-08-16T01:52:48.004Z,21.60
2017-08-16T01:55:15.772Z,21.60
2017-08-16T01:57:43.384Z,21.60
2017-08-16T02:00:11.027Z,21.60
2017-08-16T02:02:39.476Z,21.60
2017-08-16T02:05:07.093Z,21.50
2017-08-16T02:07:34.740Z,21.60
2017-08-16T02:10:03.124Z,21.60
2017-08-16T02:12:31.504Z,21.60
2017-08-16T02:14:59.905Z,21.50
2017-08-16T02:17:27.554Z,21.50
2017-08-16T02:19:55.164Z,21.50
2017-08-16T02:22:22.773Z,21.50
2017-08-16T02:24:50.582Z,21.50
2017-08-16T02:27:18.349Z,21.50
2017-08-16T02:29:46.110Z,21.40
2017-08-16T02:32:13.774Z,21.40
2017-08-16T02:34:41.562Z,21.40
2017-08-16T02:37:09.300Z,21.40
2017-08-16T02:39:37.084Z,21.40
2017-08-16T02:42:04.744Z,21.40
2017-08-16T02:44:32.517Z,21.40
2017-08-16T02:47:00.275Z,21.40
2017-08-16T02:49:27.932Z,21.30
2017-08-16T02:51:55.679Z,21.30
2017-08-16T02:54:23.468Z,21.30
2017-08-16T02:56:51.133Z,21.30
2017-08-16T02:59:18.972Z,21.30
2017-08-16T03:01:46.655Z,21.30
2017-08-16T03:04:14.501Z,21.30
2017-08-16T03:06:42.194Z,21.30
2017-08-16T03:09:09.927Z,21.30
2017-08-16T03:11:37.794Z,21.30
2017-08-16T03:14:05.612Z,21.20
2017-08-16T03:16:33.351Z,21.20
2017-08-16T03:19:01.190Z,21.20
2017-08-16T03:21:29.055Z,21.20
2017-08-16T03:23:56.690Z,21.20
2017-08-16T03:26:24.416Z,21.20
2017-08-16T03:28:52.987Z,21.20
2017-08-16T03:31:20.615Z,21.10
2017-08-16T03:33:48.389Z,21.20
2017-08-16T03:36:16.156Z,21.10
2017-08-16T03:38:43.846Z,21.20
2017-08-16T03:41:12.398Z,21.10
2017-08-16T03:43:40.163Z,21.10
2017-08-16T03:46:07.948Z,21.10
2017-08-16T03:48:35.611Z,21.10
2017-08-16T03:51:03.351Z,21.10
2017-08-16T03:53:31.117Z,21.10
2017-08-16T03:55:58.881Z,21.10
2017-08-16T03:58:26.675Z,21.10
2017-08-16T04:00:54.339Z,21.10
2017-08-16T04:03:22.826Z,21.10
2017-08-16T04:05:51.370Z,21.10
2017-08-16T04:08:19.138Z,21.10
2017-08-16T04:10:47.105Z,21.10
2017-08-16T04:13:14.870Z,21.10
2017-08-16T04:15:42.736Z,21.10
2017-08-16T04:18:10.405Z,21.10
2017-08-16T04:20:38.163Z,21.10
2017-08-16T04:23:06.032Z,21.10
2017-08-16T04:25:33.796Z,21.10
2017-08-16T04:28:01.475Z,21.10
2017-08-16T04:30:29.324Z,21.20
2017-08-16T04:32:57.090Z,21.20
2017-08-16T04:35:24.854Z,21.20
2017-08-16T04:37:52.528Z,21.20
2017-08-16T04:40:20.180Z,21.20
2017-08-16T04:42:48.045Z,21.20
2017-08-16T04:45:15.808Z,21.20
2017-08-16T04:47:43.595Z,21.20
2017-08-16T04:50:11.369Z,21.20
2017-08-16T04:52:39.919Z,21.20
2017-08-16T04:55:07.682Z,21.20
2017-08-16T04:57:35.477Z,21.20
2017-08-16T05:00:03.315Z,21.20
2017-08-16T05:02:31.180Z,21.20
2017-08-16T05:04:59.055Z,21.20
2017-08-16T05:07:26.917Z,21.20
2017-08-16T05:09:54.603Z,21.30
2017-08-16T05:12:22.267Z,21.30
2017-08-16T05:14:50.067Z,21.20
2017-08-16T05:17:18.098Z,21.30
2017-08-16T05:19:45.955Z,21.30
2017-08-16T05:22:13.920Z,21.30
2017-08-16T05:24:41.794Z,21.30
2017-08-16T05:27:09.647Z,21.30
2017-08-16T05:29:37.432Z,21.30
2017-08-16T05:32:05.086Z,21.30
2017-08-16T05:34:32.934Z,21.30
2017-08-16T05:37:00.703Z,21.30
2017-08-16T05:39:28.574Z,21.30
2017-08-16T05:41:56.331Z,21.30
2017-08-16T05:44:24.095Z,21.30
2017-08-16T05:46:51.782Z,21.30
2017-08-16T05:49:19.437Z,21.30
2017-08-16T05:51:47.386Z,21.30
2017-08-16T05:54:15.152Z,21.30
2017-08-16T05:56:42.915Z,21.30
2017-08-16T05:59:10.782Z,21.30
2017-08-16T06:01:38.649Z,21.30
2017-08-16T06:04:06.515Z,21.30
2017-08-16T06:06:34.399Z,21.30
2017-08-16T06:09:02.261Z,21.40
2017-08-16T06:11:30.138Z,21.30
2017-08-16T06:13:57.899Z,21.30
2017-08-16T06:16:25.874Z,21.30
2017-08-16T06:18:53.721Z,21.30
2017-08-16T06:21:21.681Z,21.40
2017-08-16T06:23:49.679Z,21.40
2017-08-16T06:26:17.520Z,21.40
2017-08-16T06:28:45.384Z,21.40
2017-08-16T06:31:13.253Z,21.40
2017-08-16T06:33:41.021Z,21.40
2017-08-16T06:36:08.781Z,21.40
2017-08-16T06:38:36.589Z,21.40
2017-08-16T06:41:05.246Z,21.40
2017-08-16T06:43:32.965Z,21.40
2017-08-16T06:46:00.722Z,21.40
2017-08-16T06:48:28.524Z,21.40
2017-08-16T06:50:56.678Z,21.40
2017-08-16T06:53:24.470Z,21.40
2017-08-16T06:55:52.228Z,21.50
2017-08-16T06:58:20.092Z,21.50
2017-08-16T07:00:47.963Z,21.50
2017-08-16T07:03:15.841Z,21.50
2017-08-16T07:05:43.719Z,21.50
2017-08-16T07:08:11.579Z,21.50
2017-08-16T07:10:39.441Z,21.60
2017-08-16T07:13:07.225Z,21.60
2017-08-16T07:15:35.778Z,21.70
2017-08-16T07:18:03.539Z,21.70
2017-08-16T07:20:31.323Z,21.70
2017-08-16T07:22:59.290Z,21.80
2017-08-16T07:25:27.154Z,21.80
2017-08-16T07:27:55.021Z,21.90
2017-08-16T07:30:22.823Z,21.90
2017-08-16T07:32:50.641Z,22.00
2017-08-16T07:35:18.500Z,22.00
2017-08-16T07:37:46.368Z,22.10
2017-08-16T07:40:14.134Z,22.10
2017-08-16T07:42:41.919Z,22.20
2017-08-16T07:45:09.775Z,22.20
2017-08-16T07:47:37.632Z,22.30
2017-08-16T07:50:05.506Z,22.30
2017-08-16T07:52:33.378Z,22.40
2017-08-16T07:55:01.351Z,22.50
2017-08-16T07:57:30.011Z,22.50
2017-08-16T07:59:58.012Z,22.60
2017-08-16T08:02:25.876Z,22.60
2017-08-16T08:04:53.723Z,22.70
2017-08-16T08:07:21.588Z,22.70
2017-08-16T08:09:49.472Z,22.80
2017-08-16T08:12:17.328Z,22.90
2017-08-16T08:14:45.187Z,23.00
2017-08-16T08:17:12.961Z,23.10
2017-08-16T08:19:40.827Z,23.10
2017-08-16T08:22:08.682Z,23.20
2017-08-16T08:24:36.572Z,23.20
2017-08-16T08:27:04.330Z,23.30
2017-08-16T08:29:32.303Z,23.30
2017-08-16T08:32:00.093Z,23.40
2017-08-16T08:34:28.593Z,23.50
2017-08-16T08:36:56.414Z,23.50
2017-08-16T08:39:24.472Z,23.50
2017-08-16T08:41:52.338Z,23.50
2017-08-16T08:44:20.213Z,23.60
2017-08-16T08:46:48.069Z,23.60
2017-08-16T08:49:15.946Z,23.70
2017-08-16T08:51:43.825Z,23.90
2017-08-16T08:54:11.784Z,24.00
2017-08-16T08:56:39.651Z,24.10
2017-08-16T08:59:07.620Z,24.20
2017-08-16T09:01:35.586Z,24.20
2017-08-16T09:04:03.559Z,24.20
2017-08-16T09:06:31.425Z,24.30
2017-08-16T09:08:59.293Z,24.30
2017-08-16T09:11:27.229Z,24.40
2017-08-16T09:13:55.095Z,24.40
2017-08-16T09:16:22.964Z,24.40
2017-08-16T09:18:50.870Z,24.40
2017-08-16T09:21:18.726Z,24.40
2017-08-16T09:23:47.912Z,24.40
2017-08-16T09:26:24.485Z,24.40
2017-08-16T09:28:53.821Z,24.50
2017-08-16T09:31:23.703Z,24.60
2017-08-16T09:33:53.719Z,24.60
2017-08-16T09:36:32.542Z,24.70
2017-08-16T09:39:04.241Z,24.70
2017-08-16T09:41:32.872Z,24.80
2017-08-16T09:44:00.642Z,24.80
2017-08-16T09:46:28.407Z,24.90
2017-08-16T09:48:56.243Z,25.00
2017-08-16T09:51:24.163Z,25.00
2017-08-16T09:53:51.929Z,25.00
2017-08-16T09:56:19.713Z,25.00
2017-08-16T09:58:48.253Z,25.00
2017-08-16T10:01:15.967Z,24.90
2017-08-16T10:03:43.753Z,25.00
2017-08-16T10:06:11.436Z,25.00
2017-08-16T10:08:39.264Z,25.00
2017-08-16T10:11:07.379Z,25.10
2017-08-16T10:13:35.119Z,25.10
2017-08-16T10:16:02.858Z,25.20
2017-08-16T10:18:31.500Z,25.40
2017-08-16T10:20:59.222Z,25.30
2017-08-16T10:23:26.932Z,25.40
2017-08-16T10:25:54.699Z,25.40
2017-08-16T10:28:22.394Z,25.40
2017-08-16T10:30:51.027Z,25.40
2017-08-16T10:33:18.840Z,25.40
2017-08-16T10:35:46.640Z,25.40
2017-08-16T10:38:14.473Z,25.40
2017-08-16T10:40:43.016Z,25.40
2017-08-16T10:43:10.911Z,25.40
2017-08-16T10:45:39.491Z,25.50
2017-08-16T10:48:08.026Z,25.50
2017-08-16T10:50:35.884Z,25.50
2017-08-16T10:53:03.701Z,25.50
2017-08-16T10:55:31.476Z,25.60
2017-08-16T10:58:00.137Z,25.70
2017-08-16T11:00:27.906Z,25.70
2017-08-16T11:02:55.709Z,25.90
2017-08-16T11:05:23.520Z,26.00
2017-08-16T11:07:51.283Z,26.10
2017-08-16T11:10:19.047Z,26.10
2017-08-16T11:12:46.927Z,26.20
2017-08-16T11:15:14.801Z,26.20
2017-08-16T11:17:42.632Z,26.20
2017-08-16T11:20:10.531Z,26.20
2017-08-16T11:22:38.400Z,26.20
2017-08-16T11:25:06.266Z,26.20
2017-08-16T11:27:34.137Z,26.20
2017-08-16T11:30:01.939Z,26.20
2017-08-16T11:32:29.850Z,26.20
2017-08-16T11:34:57.751Z,26.20
2017-08-16T11:37:26.220Z,26.40
2017-08-16T11:39:54.165Z,26.40
2017-08-16T11:42:22.052Z,26.50
2017-08-16T11:44:49.909Z,26.70
2017-08-16T11:47:17.782Z,26.80
2017-08-16T11:49:45.652Z,26.80
2017-08-16T11:52:13.519Z,26.90
2017-08-16T11:54:41.380Z,26.90
2017-08-16T11:57:09.258Z,27.00
2017-08-16T11:59:37.917Z,27.00
2017-08-16T12:02:05.786Z,27.10
2017-08-16T12:04:33.555Z,27.20
2017-08-16T12:07:01.427Z,27.30
2017-08-16T12:09:29.251Z,27.40
2017-08-16T12:11:57.060Z,27.40
2017-08-16T12:14:24.930Z,27.50
2017-08-16T12:16:52.800Z,27.60
2017-08-16T12:19:20.661Z,27.70
2017-08-16T12:21:48.522Z,27.80
2017-08-16T12:24:16.378Z,27.90
2017-08-16T12:26:44.206Z,28.00
2017-08-16T12:29:11.906Z,28.10
2017-08-16T12:31:39.674Z,28.20
2017-08-16T12:34:08.152Z,28.30
2017-08-16T12:36:35.917Z,28.40
2017-08-16T12:39:03.683Z,28.40
2017-08-16T12:41:31.461Z,28.50
2017-08-16T12:43:59.317Z,28.50
2017-08-16T12:46:27.152Z,28.60
2017-08-16T12:48:54.970Z,28.60
2017-08-16T12:51:22.834Z,28.60
2017-08-16T12:53:50.696Z,28.70
2017-08-16T12:56:18.504Z,28.70
2017-08-16T12:58:46.312Z,28.70
2017-08-16T13:01:14.039Z,28.70
2017-08-16T13:03:41.845Z,28.80
2017-08-16T13:06:09.723Z,28.80
2017-08-16T13:08:37.590Z,28.90
2017-08-16T13:11:05.447Z,28.90
2017-08-16T13:13:33.312Z,28.90
2017-08-16T13:16:00.963Z,29.00
2017-08-16T13:18:28.624Z,29.00
2017-08-16T13:20:56.391Z,29.00
2017-08-16T13:23:24.155Z,29.00
2017-08-16T13:25:52.042Z,29.00
2017-08-16T13:28:19.891Z,29.10
2017-08-16T13:30:47.576Z,29.00
2017-08-16T13:33:15.725Z,29.10
2017-08-16T13:35:43.487Z,29.20
2017-08-16T13:38:11.353Z,29.10
2017-08-16T13:40:39.119Z,29.00
2017-08-16T13:43:06.882Z,29.00
2017-08-16T13:45:34.749Z,29.00
2017-08-16T13:48:02.513Z,29.00
2017-08-16T13:50:30.189Z,29.00
2017-08-16T13:52:57.866Z,28.90
2017-08-16T13:55:25.704Z,28.80
2017-08-16T13:57:53.469Z,28.80
2017-08-16T14:00:21.146Z,28.70
2017-08-16T14:02:48.997Z,28.80
2017-08-16T14:05:16.679Z,28.90
2017-08-16T14:07:44.523Z,28.90
2017-08-16T14:10:12.289Z,29.10
2017-08-16T14:12:40.055Z,29.20
2017-08-16T14:15:07.726Z,29.20
2017-08-16T14:17:35.412Z,29.10
2017-08-16T14:20:03.966Z,29.00
2017-08-16T14:22:31.827Z,29.00
2017-08-16T14:24:59.509Z,28.80
2017-08-16T14:27:27.256Z,28.80
2017-08-16T14:29:55.041Z,28.90
2017-08-16T14:32:22.829Z,28.90
2017-08-16T14:34:50.581Z,28.90
2017-08-16T14:37:19.043Z,28.90
2017-08-16T14:39:46.791Z,28.90
2017-08-16T14:42:14.482Z,28.90
2017-08-16T14:44:42.244Z,29.00
2017-08-16T14:47:09.982Z,29.00
2017-08-16T14:49:37.749Z,29.00
2017-08-16T14:52:05.512Z,29.00
2017-08-16T14:54:33.311Z,29.10
2017-08-16T14:57:01.707Z,29.00
2017-08-16T14:59:29.424Z,28.90
2017-08-16T15:01:57.205Z,28.80
2017-08-16T15:04:24.947Z,28.50
2017-08-16T15:06:52.594Z,28.50
2017-08-16T15:09:20.281Z,28.50
2017-08-16T15:11:47.963Z,28.60
2017-08-16T15:14:15.803Z,28.50
2017-08-16T15:16:43.608Z,28.40
2017-08-16T15:19:11.435Z,28.40
2017-08-16T15:21:39.067Z,28.30
2017-08-16T15:24:07.062Z,28.20
2017-08-16T15:26:34.830Z,28.10
2017-08-16T15:29:02.507Z,28.00
2017-08-16T15:31:30.249Z,28.00
2017-08-16T15:33:57.946Z,28.10
2017-08-16T15:36:25.781Z,28.10
2017-08-16T15:38:53.546Z,28.10
2017-08-16T15:41:21.312Z,28.10
2017-08-16T15:43:49.180Z,28.00
2017-08-16T15:46:16.871Z,28.00
2017-08-16T15:48:45.421Z,28.00
2017-08-16T15:51:13.190Z,27.90
2017-08-16T15:53:40.957Z,28.00
2017-08-16T15:56:08.813Z,27.90
2017-08-16T15:58:36.580Z,27.90
2017-08-16T16:01:04.363Z,27.90
2017-08-16T16:03:32.209Z,27.90
2017-08-16T16:05:59.975Z,27.80
2017-08-16T16:08:27.742Z,27.80
2017-08-16T16:10:55.619Z,27.80
2017-08-16T16:13:23.537Z,27.80
2017-08-16T16:15:51.203Z,27.90
2017-08-16T16:18:18.851Z,27.90
2017-08-16T16:20:46.506Z,27.90
2017-08-16T16:23:14.276Z,27.90
2017-08-16T16:25:41.948Z,27.90
2017-08-16T16:28:09.590Z,27.90
2017-08-16T16:30:37.265Z,27.80
2017-08-16T16:33:04.914Z,27.80
2017-08-16T16:35:32.611Z,27.80
2017-08-16T16:38:00.387Z,27.80
2017-08-16T16:40:28.201Z,27.80
2017-08-16T16:42:56.877Z,27.80
2017-08-16T16:45:24.536Z,27.70
2017-08-16T16:47:52.194Z,27.70
2017-08-16T16:50:19.882Z,27.70
2017-08-16T16:52:47.670Z,27.60
2017-08-16T16:55:15.481Z,27.50
2017-08-16T16:57:43.313Z,27.50
2017-08-16T17:00:10.999Z,27.40
2017-08-16T17:02:38.632Z,27.40
2017-08-16T17:05:06.295Z,27.30
2017-08-16T17:07:33.969Z,27.20
2017-08-16T17:10:01.615Z,27.20
2017-08-16T17:12:29.290Z,27.10
2017-08-16T17:14:56.946Z,27.00
2017-08-16T17:17:24.630Z,26.90
2017-08-16T17:19:52.288Z,26.70
2017-08-16T17:22:19.920Z,26.60
2017-08-16T17:24:47.595Z,26.50
2017-08-16T17:27:15.254Z,26.40
2017-08-16T17:29:42.948Z,26.40
2017-08-16T17:32:10.584Z,26.20
2017-08-16T17:34:38.286Z,26.10
2017-08-16T17:37:05.920Z,26.00
2017-08-16T17:39:33.551Z,26.00
2017-08-16T17:42:01.221Z,25.90
2017-08-16T17:44:28.905Z,25.90
2017-08-16T17:46:56.589Z,25.90
2017-08-16T17:49:24.220Z,25.80
2017-08-16T17:51:51.921Z,25.70
2017-08-16T17:54:19.578Z,25.70
2017-08-16T17:56:47.443Z,25.60
2017-08-16T17:59:15.127Z,25.60
2017-08-16T18:01:43.547Z,25.60
2017-08-16T18:04:11.185Z,25.50
2017-08-16T18:06:38.872Z,25.50
2017-08-16T18:09:06.540Z,25.50
2017-08-16T18:11:34.178Z,25.40
2017-08-16T18:14:01.862Z,25.30
2017-08-16T18:16:29.523Z,25.30
2017-08-16T18:18:57.209Z,25.30
2017-08-16T18:21:24.867Z,25.20
2017-08-16T18:23:52.521Z,25.30
2017-08-16T18:26:20.194Z,25.30
2017-08-16T18:28:47.865Z,25.30
2017-08-16T18:31:15.531Z,25.30
2017-08-16T18:33:43.219Z,25.30
2017-08-16T18:36:10.868Z,25.30
2017-08-16T18:38:39.324Z,25.20
2017-08-16T18:41:06.965Z,25.10
2017-08-16T18:43:34.617Z,25.10
2017-08-16T18:46:02.301Z,25.10
2017-08-16T18:48:29.967Z,25.10
2017-08-16T18:50:57.664Z,25.00
2017-08-16T18:53:25.321Z,25.00
2017-08-16T18:55:53.749Z,24.90
2017-08-16T18:58:21.448Z,24.80
2017-08-16T19:00:49.106Z,24.90
2017-08-16T19:03:16.759Z,24.80
2017-08-16T19:05:44.457Z,24.80
2017-08-16T19:08:12.855Z,24.70
2017-08-16T19:10:40.568Z,24.60
2017-08-16T19:13:08.271Z,24.60
2017-08-16T19:15:35.934Z,24.60
2017-08-16T19:18:03.591Z,24.50
2017-08-16T19:20:32.042Z,24.40
2017-08-16T19:22:59.696Z,24.30
2017-08-16T19:25:27.357Z,24.30
2017-08-16T19:27:55.032Z,24.30
2017-08-16T19:30:22.680Z,24.20
2017-08-16T19:32:50.344Z,24.20
2017-08-16T19:35:18.022Z,24.10
2017-08-16T19:37:45.682Z,24.10
2017-08-16T19:40:13.376Z,24.00
2017-08-16T19:42:43.148Z,23.90
2017-08-16T19:45:10.936Z,23.90
2017-08-16T19:47:38.637Z,23.80
2017-08-16T19:50:06.277Z,23.80
2017-08-16T19:52:33.928Z,23.70
2017-08-16T19:55:01.597Z,23.70
2017-08-16T19:57:29.249Z,23.60
2017-08-16T19:59:57.683Z,23.50
2017-08-16T20:02:25.374Z,23.50
2017-08-16T20:04:53.031Z,23.40
2017-08-16T20:07:20.705Z,23.40
2017-08-16T20:09:49.154Z,23.30
2017-08-16T20:12:16.802Z,23.20
2017-08-16T20:14:44.472Z,23.20
2017-08-16T20:17:12.131Z,23.20
2017-08-16T20:19:39.817Z,23.20
2017-08-16T20:22:07.466Z,23.10
2017-08-16T20:24:35.141Z,23.10
2017-08-16T20:27:02.797Z,23.00
2017-08-16T20:29:31.265Z,22.90
2017-08-16T20:31:58.892Z,22.90
2017-08-16T20:34:26.550Z,22.90
2017-08-16T20:36:54.226Z,22.90
2017-08-16T20:39:21.860Z,22.80
2017-08-16T20:41:49.487Z,22.80
2017-08-16T20:44:17.158Z,22.70
2017-08-16T20:46:44.805Z,22.70
2017-08-16T20:49:12.477Z,22.60
2017-08-16T20:51:40.110Z,22.60
2017-08-16T20:54:08.232Z,22.60
2017-08-16T20:56:36.640Z,22.50
2017-08-16T20:59:04.323Z,22.40
2017-08-16T21:01:31.991Z,22.50
2017-08-16T21:03:59.686Z,22.40
2017-08-16T21:06:27.422Z,22.40
2017-08-16T21:08:55.083Z,22.40
2017-08-16T21:11:23.296Z,22.30
2017-08-16T21:13:51.773Z,22.20
2017-08-16T21:16:20.177Z,22.20
2017-08-16T21:18:47.866Z,22.10
2017-08-16T21:21:15.495Z,22.10
2017-08-16T21:23:43.180Z,22.10
2017-08-16T21:26:10.862Z,22.00
2017-08-16T21:28:38.509Z,22.00
2017-08-16T21:31:06.160Z,21.90
2017-08-16T21:33:33.838Z,21.90
2017-08-16T21:36:01.481Z,21.90
2017-08-16T21:38:29.179Z,21.90
2017-08-16T21:40:56.851Z,21.80
2017-08-16T21:43:24.512Z,21.80
2017-08-16T21:45:52.201Z,21.80
2017-08-16T21:48:20.651Z,21.70
2017-08-16T21:50:48.322Z,21.70
2017-08-16T21:53:16.018Z,21.60
2017-08-16T21:55:43.669Z,21.60
2017-08-16T21:58:12.078Z,21.60
2017-08-16T22:00:39.774Z,21.50
2017-08-16T22:03:07.433Z,21.50
2017-08-16T22:05:35.125Z,21.50
2017-08-16T22:08:02.773Z,21.40
2017-08-16T22:10:30.402Z,21.40
2017-08-16T22:12:58.080Z,21.30
2017-08-16T22:15:25.846Z,21.30
2017-08-16T22:17:53.610Z,21.30
2017-08-16T22:20:21.432Z,21.20
2017-08-16T22:22:49.241Z,21.20
2017-08-16T22:25:17.014Z,21.20
2017-08-16T22:27:44.693Z,21.10
2017-08-16T22:30:12.530Z,21.10
2017-08-16T22:32:40.326Z,21.10
2017-08-16T22:35:08.161Z,21.00
2017-08-16T22:37:35.928Z,21.00
2017-08-16T22:40:03.760Z,21.00
2017-08-16T22:42:31.559Z,20.90
2017-08-16T22:44:59.322Z,20.90
2017-08-16T22:47:27.008Z,20.90
2017-08-16T22:49:54.745Z,20.90
2017-08-16T22:52:22.511Z,20.80
2017-08-16T22:54:50.380Z,20.80
2017-08-16T22:57:18.061Z,20.70
2017-08-16T22:59:45.706Z,20.70
2017-08-16T23:02:13.397Z,20.70
2017-08-16T23:04:41.058Z,20.60
2017-08-16T23:07:08.706Z,20.60
2017-08-16T23:09:36.409Z,20.60
2017-08-16T23:12:04.064Z,20.60
2017-08-16T23:14:31.722Z,20.50
2017-08-16T23:17:00.164Z,20.50
2017-08-16T23:19:27.819Z,20.40
2017-08-16T23:21:55.467Z,20.50
2017-08-16T23:24:23.159Z,20.50
2017-08-16T23:26:50.856Z,20.40
2017-08-16T23:29:18.499Z,20.40
2017-08-16T23:31:46.166Z,20.30
2017-08-16T23:34:14.772Z,20.20
2017-08-16T23:36:42.427Z,20.20
2017-08-16T23:39:10.090Z,20.20
2017-08-16T23:41:37.780Z,20.20
2017-08-16T23:44:05.511Z,20.20
2017-08-16T23:46:33.205Z,20.10
2017-08-16T23:49:00.918Z,20.10
2017-08-16T23:51:30.350Z,20.10
2017-08-16T23:53:58.084Z,20.00
2017-08-16T23:56:26.636Z,20.00
2017-08-16T23:58:54.607Z,20.00
